Time;durP1;ratioP1;P1;durP2;ratioP2;P2;SDS_P1;SDS_P2;PMS_P1;PMS_P2;Temp;Humidity;BMP_temperature;BMP_pressure;BME280_temperature;BME280_humidity;BME280_pressure;Samples;Min_cycle;Max_cycle;Signal;HPM_P1;HPM_P2
2021/03/11 00:00:07;;;;;;;38.27;17.90;;;5.80;99.90;;;;;;4987753;28;20446;-70
2021/03/11 00:02:33;;;;;;;32.40;18.10;;;5.80;99.90;;;;;;4987699;28;20183;-70
2021/03/11 00:04:59;;;;;;;29.17;17.57;;;5.80;99.90;;;;;;4993869;28;21280;-70
2021/03/11 00:07:24;;;;;;;33.40;18.20;;;5.90;99.90;;;;;;4986924;28;20187;-70
2021/03/11 00:09:50;;;;;;;30.17;18.80;;;5.80;99.90;;;;;;4988459;28;20271;-70
2021/03/11 00:12:16;;;;;;;34.50;17.13;;;5.80;99.90;;;;;;4988001;28;20234;-70
2021/03/11 00:14:41;;;;;;;33.70;18.63;;;5.80;99.90;;;;;;4992354;28;20214;-70
2021/03/11 00:17:07;;;;;;;36.77;18.20;;;5.80;99.90;;;;;;4993051;28;20206;-70
2021/03/11 00:19:34;;;;;;;33.60;17.53;;;5.90;99.90;;;;;;4989595;28;20186;-69
2021/03/11 00:22:00;;;;;;;33.43;18.90;;;5.90;99.90;;;;;;4990192;28;20430;-70
2021/03/11 00:24:26;;;;;;;34.77;18.77;;;5.90;99.90;;;;;;4989187;28;20920;-70
2021/03/11 00:26:52;;;;;;;37.17;18.97;;;5.90;99.90;;;;;;4988762;28;20445;-70
2021/03/11 00:29:18;;;;;;;36.60;18.87;;;5.80;99.90;;;;;;4988508;28;20438;-70
2021/03/11 00:31:44;;;;;;;36.13;20.77;;;5.80;99.90;;;;;;4989299;28;20206;-70
2021/03/11 00:34:10;;;;;;;33.00;20.20;;;5.80;99.90;;;;;;4990800;28;20477;-70
2021/03/11 00:36:36;;;;;;;33.00;17.50;;;5.90;99.90;;;;;;4988050;28;20633;-70
2021/03/11 00:39:04;;;;;;;36.27;17.63;;;5.90;99.90;;;;;;4989556;28;20476;-70
2021/03/11 00:41:29;;;;;;;39.17;19.73;;;5.90;99.90;;;;;;4987436;28;20179;-70
2021/03/11 00:43:55;;;;;;;34.80;19.63;;;5.80;99.90;;;;;;4986479;28;20456;-70
2021/03/11 00:46:21;;;;;;;40.20;20.50;;;5.80;99.90;;;;;;4989768;28;20241;-70
2021/03/11 00:48:46;;;;;;;36.20;17.43;;;5.80;99.90;;;;;;4989363;28;20257;-70
2021/03/11 00:51:12;;;;;;;39.07;18.57;;;5.80;99.90;;;;;;4990209;28;20214;-70
2021/03/11 00:53:38;;;;;;;34.27;17.73;;;5.80;99.90;;;;;;4989728;28;20253;-70
2021/03/11 00:56:04;;;;;;;34.03;19.70;;;5.80;99.90;;;;;;4992485;28;20915;-70
2021/03/11 00:58:30;;;;;;;43.00;21.07;;;5.80;99.90;;;;;;4988884;28;20511;-70
2021/03/11 01:00:55;;;;;;;36.60;17.90;;;5.70;99.90;;;;;;4980871;28;20426;-70
2021/03/11 01:03:21;;;;;;;39.70;21.73;;;5.70;99.90;;;;;;4987587;28;20258;-70
2021/03/11 01:05:47;;;;;;;39.10;21.70;;;5.70;99.90;;;;;;4990844;28;20187;-70
2021/03/11 01:08:13;;;;;;;35.87;20.73;;;5.70;99.90;;;;;;4987569;28;20529;-70
2021/03/11 01:10:39;;;;;;;30.57;18.00;;;5.70;99.90;;;;;;4987899;28;20199;-70
2021/03/11 01:13:05;;;;;;;35.97;20.40;;;5.80;99.90;;;;;;4987657;28;20445;-70
2021/03/11 01:15:35;;;;;;;37.00;18.83;;;5.70;99.90;;;;;;4990535;28;20750;-70
2021/03/11 01:18:01;;;;;;;36.57;19.20;;;5.70;99.90;;;;;;4991453;28;20427;-70
2021/03/11 01:20:27;;;;;;;35.00;20.17;;;5.70;99.90;;;;;;4988451;28;20440;-70
2021/03/11 01:22:52;;;;;;;34.97;19.07;;;5.70;99.90;;;;;;4991724;28;20182;-70
2021/03/11 01:25:18;;;;;;;36.57;19.33;;;5.60;99.90;;;;;;4989936;28;20235;-70
2021/03/11 01:27:44;;;;;;;42.80;20.03;;;5.60;99.90;;;;;;4987833;28;20660;-70
2021/03/11 01:30:10;;;;;;;34.20;17.10;;;5.60;99.90;;;;;;4986194;28;20270;-70
2021/03/11 01:32:36;;;;;;;31.47;17.80;;;5.50;99.90;;;;;;4987735;28;20266;-70
2021/03/11 01:35:02;;;;;;;31.23;16.63;;;5.50;99.90;;;;;;4986740;28;20541;-69
2021/03/11 01:37:27;;;;;;;32.77;18.30;;;5.50;99.90;;;;;;4991423;28;20958;-69
2021/03/11 01:39:53;;;;;;;33.07;17.20;;;5.50;99.90;;;;;;4986956;28;20529;-70
2021/03/11 01:42:19;;;;;;;30.27;17.30;;;5.60;99.90;;;;;;4987596;28;20550;-69
2021/03/11 01:44:44;;;;;;;33.10;16.60;;;5.60;99.90;;;;;;4987170;28;20609;-69
2021/03/11 01:47:10;;;;;;;29.60;16.03;;;5.50;99.90;;;;;;4990326;28;20557;-69
2021/03/11 01:49:36;;;;;;;26.77;16.90;;;5.60;99.90;;;;;;4989750;28;20187;-69
2021/03/11 01:52:02;;;;;;;27.80;16.23;;;5.50;99.90;;;;;;4987670;28;20231;-69
2021/03/11 01:54:31;;;;;;;29.33;16.47;;;5.50;99.90;;;;;;4990085;28;20253;-69
2021/03/11 01:56:58;;;;;;;27.00;16.67;;;5.50;99.90;;;;;;4989531;28;20430;-69
2021/03/11 01:59:24;;;;;;;27.63;16.60;;;5.50;99.90;;;;;;4988147;28;20473;-69
2021/03/11 02:01:50;;;;;;;35.40;17.17;;;5.50;99.90;;;;;;4987101;28;20442;-70
2021/03/11 02:04:15;;;;;;;24.00;15.50;;;5.40;99.90;;;;;;4983251;28;20188;-69
2021/03/11 02:06:41;;;;;;;26.10;15.03;;;5.40;99.90;;;;;;4991559;28;20180;-69
2021/03/11 02:09:06;;;;;;;30.60;18.50;;;5.50;99.90;;;;;;4988031;28;20233;-69
2021/03/11 02:11:33;;;;;;;27.33;16.77;;;5.50;99.90;;;;;;4987276;28;20613;-69
2021/03/11 02:14:13;;;;;;;35.37;18.30;;;5.50;99.90;;;;;;4988843;28;20254;-70
2021/03/11 02:16:47;;;;;;;29.97;18.80;;;5.50;99.90;;;;;;4989437;28;20480;-69
2021/03/11 02:19:33;;;;;;;24.83;15.70;;;5.40;99.90;;;;;;4986054;28;20476;-69
2021/03/11 02:22:09;;;;;;;28.90;16.20;;;5.40;99.90;;;;;;4988722;28;20496;-69
2021/03/11 02:25:06;;;;;;;34.27;19.40;;;5.40;99.90;;;;;;4991373;28;20437;-69
2021/03/11 02:28:10;;;;;;;31.63;17.13;;;5.40;99.90;;;;;;4988751;28;20755;-69
2021/03/11 02:30:36;;;;;;;30.20;17.13;;;5.50;99.90;;;;;;4990212;28;20469;-69
2021/03/11 02:33:04;;;;;;;30.70;16.63;;;5.50;99.90;;;;;;4987472;28;20907;-69
2021/03/11 02:35:30;;;;;;;34.20;19.07;;;5.50;99.90;;;;;;4990339;28;20443;-68
2021/03/11 02:37:57;;;;;;;26.67;17.23;;;5.50;99.90;;;;;;4988303;28;20437;-69
2021/03/11 02:40:31;;;;;;;30.13;16.73;;;5.60;99.90;;;;;;4990039;28;20433;-69
2021/03/11 02:42:59;;;;;;;28.93;16.27;;;5.60;99.90;;;;;;4991467;28;20448;-69
2021/03/11 02:45:29;;;;;;;26.70;15.50;;;5.60;99.90;;;;;;4991654;28;20429;-70
2021/03/11 02:47:57;;;;;;;24.33;14.93;;;5.60;99.90;;;;;;4993883;28;20445;-70
2021/03/11 02:50:23;;;;;;;28.77;17.20;;;5.60;99.90;;;;;;4990445;28;20446;-69
2021/03/11 02:52:49;;;;;;;24.17;15.37;;;5.50;99.90;;;;;;4991081;28;20425;-70
2021/03/11 02:55:16;;;;;;;31.43;15.80;;;5.50;99.90;;;;;;4993961;28;20430;-70
2021/03/11 02:57:44;;;;;;;25.47;15.73;;;5.50;99.90;;;;;;4992915;28;20477;-69
2021/03/11 03:00:11;;;;;;;22.40;13.80;;;5.50;99.90;;;;;;4987302;28;20457;-69
2021/03/11 03:02:41;;;;;;;27.37;15.83;;;5.40;99.90;;;;;;4992685;28;20431;-69
2021/03/11 03:05:09;;;;;;;26.27;14.97;;;5.40;99.90;;;;;;4993360;28;20918;-70
2021/03/11 03:07:39;;;;;;;30.43;16.13;;;5.40;99.90;;;;;;4989263;28;20735;-69
2021/03/11 03:10:05;;;;;;;25.77;14.27;;;5.40;99.90;;;;;;4988494;28;20426;-70
2021/03/11 03:12:31;;;;;;;24.93;15.83;;;5.50;99.90;;;;;;4990585;28;20984;-70
2021/03/11 03:14:56;;;;;;;24.40;14.87;;;5.50;99.90;;;;;;4994940;28;20434;-70
2021/03/11 03:17:24;;;;;;;24.33;14.93;;;5.50;99.90;;;;;;4989838;28;20183;-69
2021/03/11 03:19:50;;;;;;;29.27;16.27;;;5.50;99.90;;;;;;4991307;28;20553;-69
2021/03/11 03:22:17;;;;;;;27.23;16.40;;;5.70;99.90;;;;;;4987144;28;20453;-69
2021/03/11 03:24:44;;;;;;;27.67;16.33;;;5.70;99.90;;;;;;4992532;28;20796;-69
2021/03/11 03:27:13;;;;;;;20.47;14.80;;;5.60;99.90;;;;;;4991329;28;20473;-69
2021/03/11 03:29:38;;;;;;;26.10;15.20;;;5.50;99.90;;;;;;4992513;28;20446;-69
2021/03/11 03:32:05;;;;;;;23.33;12.53;;;5.50;99.90;;;;;;4991738;28;21033;-69
2021/03/11 03:34:31;;;;;;;23.60;14.27;;;5.50;99.90;;;;;;4990773;28;20199;-69
2021/03/11 03:36:56;;;;;;;27.00;15.50;;;5.60;99.90;;;;;;4991321;28;20430;-69
2021/03/11 03:39:22;;;;;;;26.97;14.83;;;5.60;99.90;;;;;;4992411;28;20553;-69
2021/03/11 03:41:50;;;;;;;24.10;15.10;;;5.60;99.90;;;;;;4990612;28;20191;-69
2021/03/11 03:44:19;;;;;;;22.87;14.87;;;5.60;99.90;;;;;;4988946;28;20214;-69
2021/03/11 03:46:46;;;;;;;24.93;15.60;;;5.70;99.90;;;;;;4989394;28;20706;-69
2021/03/11 03:49:13;;;;;;;26.37;15.40;;;5.60;99.90;;;;;;4986057;28;20572;-69
2021/03/11 03:51:44;;;;;;;25.47;15.60;;;5.60;99.90;;;;;;4988260;28;20473;-69
2021/03/11 03:54:14;;;;;;;28.10;14.40;;;5.60;99.90;;;;;;4987781;28;20489;-69
2021/03/11 03:56:45;;;;;;;24.83;14.13;;;5.60;99.90;;;;;;4992762;28;20899;-69
2021/03/11 03:59:15;;;;;;;28.50;16.17;;;5.50;99.90;;;;;;4993032;28;23211;-69
2021/03/11 04:01:43;;;;;;;27.90;15.20;;;5.60;99.90;;;;;;4988164;28;20472;-69
2021/03/11 04:04:12;;;;;;;24.27;15.63;;;5.50;99.90;;;;;;4991565;28;20430;-69
2021/03/11 04:06:40;;;;;;;24.50;15.30;;;5.60;99.90;;;;;;4990098;28;20910;-69
2021/03/11 04:09:09;;;;;;;28.70;15.47;;;5.60;99.90;;;;;;4988061;28;20437;-69
2021/03/11 04:11:36;;;;;;;20.27;13.43;;;5.50;99.90;;;;;;4991488;28;20462;-70
2021/03/11 04:14:06;;;;;;;23.40;14.80;;;5.60;99.90;;;;;;4990141;28;20492;-69
2021/03/11 04:16:32;;;;;;;25.60;14.23;;;5.60;99.90;;;;;;4989084;28;20433;-69
2021/03/11 04:19:00;;;;;;;23.00;14.30;;;5.70;99.90;;;;;;4988288;28;20443;-69
2021/03/11 04:21:26;;;;;;;24.37;15.13;;;5.70;99.90;;;;;;4990834;28;20442;-69
2021/03/11 04:23:53;;;;;;;20.30;12.93;;;5.60;99.90;;;;;;4992380;28;20449;-69
2021/03/11 04:26:20;;;;;;;24.00;14.60;;;5.60;99.90;;;;;;4985774;28;20450;-69
2021/03/11 04:28:46;;;;;;;27.80;14.80;;;5.60;99.90;;;;;;4989495;28;20476;-70
2021/03/11 04:31:12;;;;;;;20.00;13.43;;;5.60;99.90;;;;;;4988204;28;20512;-70
2021/03/11 04:33:38;;;;;;;18.47;12.50;;;5.50;99.90;;;;;;4989768;28;20439;-70
2021/03/11 04:36:05;;;;;;;25.60;13.70;;;5.60;99.90;;;;;;4990143;28;20475;-70
2021/03/11 04:38:32;;;;;;;18.73;11.73;;;5.70;99.90;;;;;;4988640;28;20492;-70
2021/03/11 04:40:58;;;;;;;24.27;13.17;;;5.70;99.90;;;;;;4987696;28;20487;-70
2021/03/11 04:43:25;;;;;;;18.57;12.27;;;5.70;99.90;;;;;;4988440;28;20470;-70
2021/03/11 04:45:51;;;;;;;21.47;12.70;;;5.70;99.90;;;;;;4991643;28;20442;-70
2021/03/11 04:48:17;;;;;;;16.80;11.70;;;5.70;99.90;;;;;;4989111;28;20452;-70
2021/03/11 04:50:44;;;;;;;20.53;13.23;;;5.70;99.90;;;;;;4988103;28;20462;-70
2021/03/11 04:53:10;;;;;;;16.27;11.23;;;5.70;99.90;;;;;;4989425;28;20434;-70
2021/03/11 04:55:37;;;;;;;22.37;11.90;;;5.60;99.90;;;;;;4991167;28;20446;-70
2021/03/11 04:58:04;;;;;;;20.40;12.10;;;5.70;99.90;;;;;;4989867;28;21018;-70
2021/03/11 05:00:31;;;;;;;19.50;12.37;;;5.70;99.90;;;;;;4985052;28;20430;-70
2021/03/11 05:02:59;;;;;;;18.23;12.20;;;5.70;99.90;;;;;;4990766;28;20825;-70
2021/03/11 05:05:38;;;;;;;20.50;11.43;;;5.70;99.90;;;;;;4991751;28;20548;-70
2021/03/11 05:08:04;;;;;;;20.10;12.97;;;5.70;99.90;;;;;;4986918;28;20458;-70
2021/03/11 05:10:31;;;;;;;25.07;12.93;;;5.70;99.90;;;;;;4986002;28;20465;-70
2021/03/11 05:12:57;;;;;;;19.13;12.50;;;5.70;99.90;;;;;;4987932;28;20504;-70
2021/03/11 05:15:22;;;;;;;19.90;11.03;;;5.80;99.90;;;;;;4988617;28;20833;-70
2021/03/11 05:17:48;;;;;;;19.67;12.17;;;5.80;99.90;;;;;;4988776;28;20196;-70
2021/03/11 05:20:14;;;;;;;14.60;11.00;;;5.80;99.90;;;;;;4989132;28;20245;-70
2021/03/11 05:22:40;;;;;;;15.27;11.23;;;5.80;99.90;;;;;;4991798;28;20265;-70
2021/03/11 05:25:08;;;;;;;18.97;11.53;;;5.80;99.90;;;;;;4987100;28;20447;-70
2021/03/11 05:27:34;;;;;;;18.77;10.67;;;5.80;99.90;;;;;;4988302;28;20530;-70
2021/03/11 05:30:00;;;;;;;18.13;11.90;;;5.70;99.90;;;;;;4989285;28;21055;-70
2021/03/11 05:32:27;;;;;;;18.17;12.70;;;5.80;99.90;;;;;;4990479;28;20536;-70
2021/03/11 05:34:53;;;;;;;16.30;11.30;;;5.80;99.90;;;;;;4987569;28;20187;-70
2021/03/11 05:37:18;;;;;;;18.60;11.83;;;5.80;99.90;;;;;;4990363;28;20447;-70
2021/03/11 05:39:44;;;;;;;16.10;11.40;;;5.80;99.90;;;;;;4988440;28;21195;-70
2021/03/11 05:42:11;;;;;;;17.17;12.70;;;5.90;99.90;;;;;;4983108;28;20187;-70
2021/03/11 05:44:38;;;;;;;18.70;11.70;;;6.00;99.90;;;;;;4982352;28;20348;-67
2021/03/11 05:47:06;;;;;;;13.93;10.43;;;5.90;99.90;;;;;;4984748;28;20521;-70
2021/03/11 05:49:34;;;;;;;16.00;11.23;;;5.90;99.90;;;;;;4983469;28;20448;-70
2021/03/11 05:52:02;;;;;;;16.67;10.90;;;6.00;99.90;;;;;;4986862;28;20794;-70
2021/03/11 05:54:28;;;;;;;15.77;11.33;;;6.00;99.90;;;;;;4987027;28;20520;-70
2021/03/11 05:56:55;;;;;;;13.60;9.93;;;5.90;99.90;;;;;;4984193;28;20438;-70
2021/03/11 05:59:22;;;;;;;13.47;10.30;;;5.90;99.90;;;;;;4991357;28;20453;-70
2021/03/11 06:01:48;;;;;;;15.70;9.40;;;5.90;99.90;;;;;;4977647;28;20474;-70
2021/03/11 06:04:15;;;;;;;16.20;10.27;;;6.00;99.90;;;;;;4984501;28;20771;-70
2021/03/11 06:06:42;;;;;;;12.40;9.83;;;6.00;99.90;;;;;;4988165;28;20787;-70
2021/03/11 06:09:08;;;;;;;15.47;9.47;;;5.90;99.90;;;;;;4988513;28;20435;-70
2021/03/11 06:11:35;;;;;;;11.50;9.80;;;6.00;99.90;;;;;;4987826;28;20520;-70
2021/03/11 06:14:01;;;;;;;14.73;9.50;;;6.00;99.90;;;;;;4993461;28;20820;-69
2021/03/11 06:16:31;;;;;;;14.00;9.73;;;6.10;99.90;;;;;;4993470;28;20430;-69
2021/03/11 06:18:57;;;;;;;12.97;9.27;;;6.10;99.90;;;;;;4995311;28;21162;-70
2021/03/11 06:21:24;;;;;;;13.90;9.00;;;6.00;99.90;;;;;;4991772;28;20430;-69
2021/03/11 06:23:50;;;;;;;13.93;10.00;;;6.00;99.90;;;;;;4994196;28;20206;-69
2021/03/11 06:26:16;;;;;;;14.80;9.23;;;6.10;99.90;;;;;;4993746;28;20785;-69
2021/03/11 06:28:44;;;;;;;15.30;9.33;;;6.10;99.90;;;;;;4991898;28;20454;-70
2021/03/11 06:31:26;;;;;;;12.20;8.70;;;6.20;99.90;;;;;;4992103;28;20531;-70
2021/03/11 06:33:54;;;;;;;13.43;9.13;;;6.20;99.90;;;;;;4987741;28;20421;-70
2021/03/11 06:36:21;;;;;;;13.70;8.67;;;6.20;99.90;;;;;;4988606;28;20534;-70
2021/03/11 06:38:47;;;;;;;13.60;8.73;;;6.30;99.90;;;;;;4989006;28;20445;-70
2021/03/11 06:41:14;;;;;;;12.33;9.40;;;6.20;99.90;;;;;;4987963;28;20923;-69
2021/03/11 06:43:57;;;;;;;14.10;8.83;;;6.30;99.90;;;;;;4984724;28;21592;-70
2021/03/11 06:46:24;;;;;;;12.20;8.23;;;6.20;99.90;;;;;;4989777;28;20441;-69
2021/03/11 06:48:50;;;;;;;13.40;9.17;;;6.20;99.90;;;;;;4990678;28;20445;-68
2021/03/11 06:51:18;;;;;;;13.90;9.97;;;6.20;99.90;;;;;;4989564;28;20785;-71
2021/03/11 06:54:00;;;;;;;10.67;8.47;;;6.40;99.90;;;;;;4995253;28;20429;-70
2021/03/11 06:56:27;;;;;;;9.83;7.57;;;6.30;99.90;;;;;;4994175;28;20433;-70
2021/03/11 06:59:03;;;;;;;11.37;8.37;;;6.30;99.90;;;;;;4995089;28;20429;-70
2021/03/11 07:01:30;;;;;;;12.07;9.03;;;6.40;99.90;;;;;;4990325;28;20438;-70
2021/03/11 07:03:59;;;;;;;13.03;8.27;;;6.40;99.90;;;;;;4992887;28;20511;-70
2021/03/11 07:06:35;;;;;;;9.67;7.40;;;6.30;99.90;;;;;;4991560;28;20426;-69
2021/03/11 07:09:03;;;;;;;11.47;8.13;;;6.40;99.90;;;;;;4991688;28;20452;-69
2021/03/11 07:11:29;;;;;;;14.03;9.10;;;6.50;99.90;;;;;;4991041;28;20461;-70
2021/03/11 07:13:57;;;;;;;15.70;9.20;;;6.50;99.90;;;;;;4990559;28;21025;-70
2021/03/11 07:16:25;;;;;;;16.93;9.87;;;6.50;99.90;;;;;;4993186;28;20461;-70
2021/03/11 07:19:18;;;;;;;17.30;10.53;;;6.60;99.90;;;;;;4992507;28;20774;-70
2021/03/11 07:21:49;;;;;;;13.40;9.07;;;6.60;99.90;;;;;;4987264;28;20446;-70
2021/03/11 07:24:38;;;;;;;10.90;9.30;;;6.60;99.90;;;;;;4992373;28;20423;-70
2021/03/11 07:27:06;;;;;;;14.50;9.37;;;6.60;99.90;;;;;;4991645;28;20441;-70
2021/03/11 07:29:32;;;;;;;13.57;10.07;;;6.60;99.90;;;;;;4989542;28;20463;-70
2021/03/11 07:32:00;;;;;;;15.53;10.50;;;6.70;99.90;;;;;;4992797;28;20861;-70
2021/03/11 07:34:44;;;;;;;12.70;9.00;;;6.70;99.90;;;;;;4987542;28;20616;-69
2021/03/11 07:37:10;;;;;;;12.30;9.07;;;6.70;99.90;;;;;;4992230;28;20532;-71
2021/03/11 07:39:39;;;;;;;14.63;10.20;;;6.80;99.90;;;;;;4992176;28;20430;-70
2021/03/11 07:42:07;;;;;;;16.17;9.77;;;6.80;99.90;;;;;;4990181;28;20446;-68
2021/03/11 07:44:34;;;;;;;13.63;10.03;;;7.00;99.90;;;;;;4993080;28;20426;-68
2021/03/11 07:47:00;;;;;;;14.53;10.70;;;6.90;99.90;;;;;;4993854;28;20561;-68
2021/03/11 07:49:29;;;;;;;12.67;9.20;;;7.00;99.90;;;;;;4993603;28;20453;-67
2021/03/11 07:51:55;;;;;;;14.50;10.00;;;7.00;99.90;;;;;;4990365;28;20458;-66
2021/03/11 07:54:22;;;;;;;18.83;10.93;;;7.00;99.90;;;;;;4993684;28;20958;-70
2021/03/11 07:56:51;;;;;;;11.87;8.90;;;7.20;99.90;;;;;;4993778;28;20759;-68
2021/03/11 07:59:18;;;;;;;12.70;9.20;;;7.20;99.90;;;;;;4989050;28;20736;-76
2021/03/11 08:01:49;;;;;;;12.80;8.93;;;7.10;99.90;;;;;;4987567;28;20470;-70
2021/03/11 08:04:18;;;;;;;14.93;9.83;;;7.10;99.90;;;;;;4989394;28;20815;-73
2021/03/11 08:06:45;;;;;;;13.20;9.43;;;7.10;99.90;;;;;;4989948;28;20470;-70
2021/03/11 08:09:10;;;;;;;12.43;9.07;;;7.10;99.90;;;;;;4992612;28;21457;-68
2021/03/11 08:11:37;;;;;;;13.77;10.07;;;7.10;99.90;;;;;;4987501;28;20516;-71
2021/03/11 08:14:25;;;;;;;12.20;10.33;;;7.20;99.90;;;;;;4987568;28;20182;-69
2021/03/11 08:16:52;;;;;;;14.67;9.90;;;7.30;99.90;;;;;;4987812;28;20480;-69
2021/03/11 08:19:36;;;;;;;12.83;9.47;;;7.30;99.90;;;;;;4988274;28;20427;-68
2021/03/11 08:22:05;;;;;;;10.37;8.57;;;7.40;99.90;;;;;;4992977;28;20427;-68
2021/03/11 08:24:45;;;;;;;12.03;8.97;;;7.40;99.90;;;;;;4986792;28;20970;-68
2021/03/11 08:27:40;;;;;;;13.30;8.87;;;7.50;99.90;;;;;;4988764;28;20532;-67
2021/03/11 08:30:07;;;;;;;12.17;8.53;;;7.50;99.90;;;;;;4974079;28;20437;-68
2021/03/11 08:32:52;;;;;;;12.60;8.60;;;7.50;99.90;;;;;;4986895;28;20520;-68
2021/03/11 08:35:33;;;;;;;11.40;9.13;;;7.50;99.90;;;;;;4988411;28;20986;-67
2021/03/11 08:38:00;;;;;;;11.90;8.13;;;7.50;99.90;;;;;;4986778;28;20422;-68
2021/03/11 08:40:42;;;;;;;11.20;8.33;;;7.50;99.90;;;;;;4989125;28;20778;-69
2021/03/11 08:43:08;;;;;;;10.50;9.37;;;7.60;99.90;;;;;;4988655;28;20517;-68
2021/03/11 08:45:37;;;;;;;10.70;8.30;;;7.70;99.90;;;;;;4990693;28;20441;-68
2021/03/11 08:48:16;;;;;;;10.20;8.00;;;7.80;99.90;;;;;;4989397;28;20434;-68
2021/03/11 08:50:47;;;;;;;13.27;9.20;;;7.90;99.90;;;;;;4990201;28;20461;-68
2021/03/11 08:53:33;;;;;;;12.47;9.20;;;8.10;99.90;;;;;;4991600;28;20759;-68
2021/03/11 08:55:59;;;;;;;9.30;7.87;;;8.10;99.90;;;;;;4991142;28;20434;-68
2021/03/11 08:58:27;;;;;;;10.57;8.10;;;8.20;99.90;;;;;;4992656;28;20524;-68
2021/03/11 09:01:01;;;;;;;12.30;8.27;;;8.30;99.90;;;;;;4990817;28;20481;-68
2021/03/11 09:03:49;;;;;;;9.97;8.20;;;8.40;99.90;;;;;;4987913;28;20485;-69
2021/03/11 09:06:17;;;;;;;9.47;7.13;;;8.50;99.90;;;;;;4989811;28;20426;-67
2021/03/11 09:08:53;;;;;;;8.27;7.40;;;8.60;99.90;;;;;;4988446;28;20524;-68
2021/03/11 09:11:21;;;;;;;11.23;8.00;;;8.60;99.90;;;;;;4988848;28;20449;-70
2021/03/11 09:13:51;;;;;;;8.17;6.80;;;8.70;99.90;;;;;;4990257;28;20528;-69
2021/03/11 09:16:23;;;;;;;13.67;8.73;;;8.70;99.90;;;;;;4990440;28;21036;-69
2021/03/11 09:18:56;;;;;;;10.77;7.90;;;8.80;99.90;;;;;;4992616;28;20497;-70
2021/03/11 09:21:35;;;;;;;8.77;7.27;;;8.90;99.90;;;;;;4988029;28;20426;-70
2021/03/11 09:24:02;;;;;;;7.53;6.63;;;8.90;99.90;;;;;;4988467;28;21034;-68
2021/03/11 09:26:30;;;;;;;10.20;7.60;;;9.00;99.90;;;;;;4986739;28;20442;-69
2021/03/11 09:28:56;;;;;;;8.90;6.73;;;9.00;99.90;;;;;;4991014;28;20532;-70
2021/03/11 09:31:27;;;;;;;7.57;6.83;;;9.10;99.90;;;;;;4985855;28;20473;-69
2021/03/11 09:33:56;;;;;;;7.20;6.50;;;9.10;99.90;;;;;;4990851;28;20549;-70
2021/03/11 09:36:25;;;;;;;6.37;5.77;;;9.20;99.90;;;;;;4992127;28;20433;-71
2021/03/11 09:38:51;;;;;;;6.30;5.70;;;9.30;99.90;;;;;;4988712;28;20418;-68
2021/03/11 09:41:25;;;;;;;6.70;5.87;;;9.30;99.90;;;;;;4985543;28;20441;-70
2021/03/11 09:43:50;;;;;;;7.27;6.30;;;9.30;99.90;;;;;;4990768;28;20437;-70
2021/03/11 09:46:18;;;;;;;8.07;5.90;;;9.30;99.90;;;;;;4991192;28;20441;-69
2021/03/11 09:48:51;;;;;;;7.73;6.23;;;9.40;99.90;;;;;;4994762;28;20202;-70
2021/03/11 09:51:28;;;;;;;9.80;6.70;;;9.40;99.90;;;;;;4991277;28;20540;-68
2021/03/11 09:54:03;;;;;;;6.83;6.20;;;9.40;99.90;;;;;;4990273;28;20433;-69
2021/03/11 09:56:32;;;;;;;10.10;6.47;;;9.50;99.90;;;;;;4991961;28;20422;-70
2021/03/11 09:59:06;;;;;;;5.97;5.37;;;9.50;99.90;;;;;;4991599;28;20414;-70
2021/03/11 10:01:37;;;;;;;5.67;5.17;;;9.60;99.90;;;;;;4992101;28;20913;-70
2021/03/11 10:04:16;;;;;;;6.70;6.10;;;9.80;99.90;;;;;;4992503;28;20441;-68
2021/03/11 10:06:52;;;;;;;8.70;5.43;;;10.00;99.90;;;;;;4996040;28;20457;-67
2021/03/11 10:09:19;;;;;;;6.03;5.40;;;10.10;99.90;;;;;;4989767;28;20483;-67
2021/03/11 10:11:47;;;;;;;6.53;5.80;;;10.30;99.90;;;;;;4991179;28;20492;-67
2021/03/11 10:14:33;;;;;;;5.80;5.33;;;10.50;99.90;;;;;;4992031;28;20422;-67
2021/03/11 10:17:03;;;;;;;5.70;5.10;;;10.70;99.90;;;;;;4994354;28;20458;-68
2021/03/11 10:19:30;;;;;;;6.13;5.10;;;10.80;99.90;;;;;;4986082;28;20422;-69
2021/03/11 10:22:05;;;;;;;5.10;4.73;;;11.00;99.90;;;;;;4993998;28;20438;-69
2021/03/11 10:24:33;;;;;;;5.83;4.70;;;11.00;99.90;;;;;;4988927;28;20438;-69
2021/03/11 10:26:59;;;;;;;4.20;3.90;;;11.10;99.90;;;;;;4989254;28;20422;-68
2021/03/11 10:29:31;;;;;;;5.10;4.47;;;11.10;99.90;;;;;;4994379;28;20430;-67
2021/03/11 10:32:04;;;;;;;4.33;3.93;;;11.20;99.90;;;;;;4992835;28;20469;-68
2021/03/11 10:34:30;;;;;;;4.50;4.10;;;11.30;99.90;;;;;;4992731;28;20576;-68
2021/03/11 10:37:00;;;;;;;5.67;4.20;;;11.30;99.90;;;;;;4995181;28;20513;-68
2021/03/11 10:39:27;;;;;;;4.50;4.17;;;11.30;99.90;;;;;;4992566;28;20950;-68
2021/03/11 10:41:56;;;;;;;5.73;3.97;;;11.30;99.90;;;;;;4993837;28;20503;-68
2021/03/11 10:44:22;;;;;;;3.63;3.33;;;11.40;99.90;;;;;;4994504;28;20445;-67
2021/03/11 10:46:48;;;;;;;4.50;4.10;;;11.30;99.90;;;;;;4992749;28;20474;-67
2021/03/11 10:49:14;;;;;;;3.50;3.30;;;11.10;99.90;;;;;;4990728;28;20473;-68
2021/03/11 10:51:44;;;;;;;5.27;3.90;;;11.20;99.90;;;;;;4993568;28;20532;-67
2021/03/11 10:54:29;;;;;;;4.53;4.13;;;11.10;99.90;;;;;;4991666;28;20752;-68
2021/03/11 10:57:17;;;;;;;4.90;4.07;;;11.30;99.90;;;;;;4989336;28;20429;-68
2021/03/11 10:59:54;;;;;;;6.00;4.00;;;11.30;99.90;;;;;;4987766;28;20825;-67
2021/03/11 11:02:21;;;;;;;4.07;3.77;;;11.40;99.90;;;;;;4994744;28;20445;-68
2021/03/11 11:04:47;;;;;;;4.57;4.17;;;11.50;99.90;;;;;;4989930;28;20538;-67
2021/03/11 11:07:13;;;;;;;4.07;3.77;;;11.30;99.90;;;;;;4989315;28;20520;-67
2021/03/11 11:09:43;;;;;;;4.90;4.50;;;11.20;99.90;;;;;;4989433;28;20442;-68
2021/03/11 11:12:14;;;;;;;5.43;5.00;;;11.00;99.90;;;;;;4989277;28;20633;-67
2021/03/11 11:14:41;;;;;;;4.93;4.53;;;11.00;99.90;;;;;;4990630;28;20469;-68
2021/03/11 11:17:07;;;;;;;5.37;3.90;;;10.90;99.90;;;;;;4988968;28;20462;-68
2021/03/11 11:19:33;;;;;;;3.47;3.17;;;10.70;99.90;;;;;;4986631;28;20182;-68
2021/03/11 11:22:00;;;;;;;6.90;3.20;;;10.40;99.90;;;;;;4993065;28;20495;-68
2021/03/11 11:24:26;;;;;;;5.73;3.40;;;10.10;99.90;;;;;;4992165;28;20195;-67
2021/03/11 11:26:54;;;;;;;5.17;4.00;;;10.00;99.90;;;;;;4995137;28;20430;-68
2021/03/11 11:29:21;;;;;;;4.33;3.93;;;10.10;99.90;;;;;;4995669;28;20513;-68
2021/03/11 11:31:47;;;;;;;5.60;5.00;;;10.40;99.90;;;;;;4994433;28;20462;-67
2021/03/11 11:34:12;;;;;;;5.40;4.90;;;10.60;99.90;;;;;;4994895;28;20453;-67
2021/03/11 11:36:38;;;;;;;9.20;4.20;;;10.80;99.90;;;;;;4994767;28;20194;-68
2021/03/11 11:39:04;;;;;;;6.63;3.80;;;10.90;99.90;;;;;;4994093;28;20296;-68
2021/03/11 11:41:30;;;;;;;4.43;4.00;;;11.00;99.90;;;;;;4993043;28;20214;-68
2021/03/11 11:43:55;;;;;;;7.70;5.17;;;11.00;99.90;;;;;;4994571;28;20465;-68
2021/03/11 11:46:21;;;;;;;6.37;4.50;;;10.80;99.90;;;;;;4994796;28;20176;-67
2021/03/11 11:48:47;;;;;;;6.50;4.93;;;10.80;99.90;;;;;;4992123;28;20233;-68
2021/03/11 11:51:12;;;;;;;10.37;4.97;;;10.70;99.90;;;;;;4989883;28;20644;-68
2021/03/11 11:53:38;;;;;;;10.23;4.90;;;10.50;99.90;;;;;;4992275;28;20182;-68
2021/03/11 11:56:05;;;;;;;10.53;5.30;;;10.50;99.90;;;;;;4989290;28;20581;-68
2021/03/11 11:58:30;;;;;;;6.00;4.77;;;10.50;99.90;;;;;;4991481;28;20171;-68
2021/03/11 12:00:56;;;;;;;9.27;5.03;;;10.30;99.90;;;;;;4988925;28;20442;-68
2021/03/11 12:03:22;;;;;;;10.97;5.20;;;10.30;99.90;;;;;;4989360;28;20332;-68
2021/03/11 12:05:47;;;;;;;6.10;5.37;;;10.40;99.90;;;;;;4994481;28;20183;-68
2021/03/11 12:08:13;;;;;;;7.87;4.80;;;10.70;99.90;;;;;;4993411;28;20211;-68
2021/03/11 12:10:39;;;;;;;11.73;3.97;;;11.10;99.90;;;;;;4994362;28;20183;-68
2021/03/11 12:13:07;;;;;;;4.87;3.53;;;11.40;99.90;;;;;;4993392;28;20415;-68
2021/03/11 12:15:33;;;;;;;9.40;3.10;;;11.80;99.90;;;;;;4990611;28;20185;-68
2021/03/11 12:17:59;;;;;;;4.17;2.83;;;11.90;99.90;;;;;;4989744;28;20442;-67
2021/03/11 12:20:25;;;;;;;6.77;3.37;;;11.90;99.90;;;;;;4986344;28;20438;-67
2021/03/11 12:22:50;;;;;;;4.67;2.67;;;12.00;99.90;;;;;;4990698;28;20209;-68
2021/03/11 12:25:16;;;;;;;8.60;3.27;;;12.00;99.90;;;;;;4990439;28;20180;-67
2021/03/11 12:27:41;;;;;;;7.17;3.10;;;12.10;99.90;;;;;;4988876;28;20523;-67
2021/03/11 12:30:07;;;;;;;8.53;2.40;;;12.10;99.90;;;;;;4987879;28;20197;-68
2021/03/11 12:32:33;;;;;;;5.43;2.73;;;12.20;99.90;;;;;;4987784;28;20198;-68
2021/03/11 12:34:59;;;;;;;4.80;2.40;;;12.20;99.90;;;;;;4989153;28;20435;-68
2021/03/11 12:37:24;;;;;;;3.80;2.10;;;12.10;99.90;;;;;;4989363;28;20210;-68
2021/03/11 12:39:50;;;;;;;7.90;2.20;;;12.10;99.90;;;;;;4989062;28;20238;-68
2021/03/11 12:42:15;;;;;;;9.33;2.30;;;12.00;99.90;;;;;;4990103;28;20565;-68
2021/03/11 12:44:41;;;;;;;5.40;2.70;;;11.90;99.90;;;;;;4989731;28;20175;-68
2021/03/11 12:47:07;;;;;;;10.07;2.90;;;11.70;99.90;;;;;;4988190;28;20183;-68
2021/03/11 12:49:33;;;;;;;7.57;3.00;;;11.30;99.90;;;;;;4985578;28;20278;-68